^^
Station Historical Data
Daily Summary for February 7, 2017 Units:  Both    English   Metric
« Previous Day
Next Day »
Daily Weekly Monthly Yearly Custom
  High: Low: Average:
Temperature: 90.9 °F /  32.7 °C 61.9 °F /  16.6 °C 76.8 °F /  24.9 °C
Dew Point: 61.3 °F /  16.3 °C 45.9 °F /  7.7 °C 54.9 °F /  12.7 °C
Humidity: 84% 22% 52%
Wind Speed: 12.1mph /  19.5km/h - 1.9mph /  3.1km/h
Wind Gust: 14.0mph /  22.5km/h - -
Wind- - SE
Pressure: 29.72 in /  1006.3 hPa 29.57 in /  1001.2 hPa -
Precipitation: 0.00 in /  0 mm    
Historical Graphs
 
 
Tabular Data for February 7, 2017
Time Temperature Dew Point Pressure Wind Wind Speed Wind Gust Humidity Rainfall Rate (Hourly) solar Conditions
00:04 72.0 °F /  22.2 °C 52.3 °F /  11.3 °C 29.72in /  1006.3hPa Calm   1.0mph /  1.6km/h 50% 0.00in /  0mm 0.0 W/m2
00:10 71.8 °F /  22.1 °C 54.3 °F /  12.4 °C 29.71in /  1006hPa NE 2.0mph /  3.2km/h 2.0mph /  3.2km/h 54% 0.00in /  0mm 0.0 W/m2
00:17 71.6 °F /  22 °C 56.5 °F /  13.6 °C 29.72in /  1006.3hPa East 0.9mph /  1.4km/h 2.0mph /  3.2km/h 59% 0.00in /  0mm 0.0 W/m2
00:23 71.4 °F /  21.9 °C 57.2 °F /  14 °C 29.72in /  1006.3hPa Calm   1.0mph /  1.6km/h 61% 0.00in /  0mm 0.0 W/m2
00:29 71.2 °F /  21.8 °C 57.6 °F /  14.2 °C 29.71in /  1006hPa Calm     62% 0.00in /  0mm 0.0 W/m2
00:35 71.1 °F /  21.7 °C 57.4 °F /  14.1 °C 29.71in /  1006hPa Calm   1.0mph /  1.6km/h 62% 0.00in /  0mm 0.0 W/m2
00:41 70.9 °F /  21.6 °C 57.7 °F /  14.3 °C 29.71in /  1006hPa Calm     63% 0.00in /  0mm 0.0 W/m2
00:47 70.7 °F /  21.5 °C 57.9 °F /  14.4 °C 29.71in /  1006hPa Calm   1.0mph /  1.6km/h 64% 0.00in /  0mm 0.0 W/m2
00:53 70.5 °F /  21.4 °C 58.1 °F /  14.5 °C 29.71in /  1006hPa Calm   1.0mph /  1.6km/h 65% 0.00in /  0mm 0.0 W/m2
00:59 70.3 °F /  21.3 °C 58.1 °F /  14.5 °C 29.71in /  1006hPa Calm   1.0mph /  1.6km/h 65% 0.00in /  0mm 0.0 W/m2
01:06 70.2 °F /  21.2 °C 58.3 °F /  14.6 °C 29.71in /  1006hPa Calm     66% 0.00in /  0mm 0.0 W/m2
01:12 70.0 °F /  21.1 °C 58.1 °F /  14.5 °C 29.71in /  1006hPa Calm     66% 0.00in /  0mm 0.0 W/m2
01:18 69.8 °F /  21 °C 58.3 °F /  14.6 °C 29.70in /  1005.6hPa Calm     67% 0.00in /  0mm 0.0 W/m2
01:24 69.6 °F /  20.9 °C 58.1 °F /  14.5 °C 29.70in /  1005.6hPa Calm     67% 0.00in /  0mm 0.0 W/m2
01:30 69.4 °F /  20.8 °C 58.5 °F /  14.7 °C 29.70in /  1005.6hPa Calm     68% 0.00in /  0mm 0.0 W/m2
01:36 69.3 °F /  20.7 °C 58.3 °F /  14.6 °C 29.70in /  1005.6hPa Calm     68% 0.00in /  0mm 0.0 W/m2
01:42 69.3 °F /  20.7 °C 59.0 °F /  15 °C 29.70in /  1005.6hPa Calm     70% 0.00in /  0mm 0.0 W/m2
01:48 69.1 °F /  20.6 °C 58.8 °F /  14.9 °C 29.70in /  1005.6hPa Calm     70% 0.00in /  0mm 0.0 W/m2
01:55 69.1 °F /  20.6 °C 59.4 °F /  15.2 °C 29.70in /  1005.6hPa Calm   1.0mph /  1.6km/h 71% 0.00in /  0mm 0.0 W/m2
02:01 69.1 °F /  20.6 °C 59.4 °F /  15.2 °C 29.70in /  1005.6hPa Calm     71% 0.00in /  0mm 0.0 W/m2
02:07 69.1 °F /  20.6 °C 59.4 °F /  15.2 °C 29.70in /  1005.6hPa NNE 2.0mph /  3.2km/h 3.0mph /  4.8km/h 71% 0.00in /  0mm 0.0 W/m2
02:13 68.9 °F /  20.5 °C 59.2 °F /  15.1 °C 29.70in /  1005.6hPa NNE 0.9mph /  1.4km/h 3.0mph /  4.8km/h 71% 0.00in /  0mm 0.0 W/m2
02:19 68.7 °F /  20.4 °C 59.0 °F /  15 °C 29.69in /  1005.3hPa Calm   5.0mph /  8km/h 71% 0.00in /  0mm 0.0 W/m2
02:25 68.7 °F /  20.4 °C 59.0 °F /  15 °C 29.69in /  1005.3hPa Calm   1.0mph /  1.6km/h 71% 0.00in /  0mm 0.0 W/m2
02:31 68.5 °F /  20.3 °C 58.8 °F /  14.9 °C 29.69in /  1005.3hPa Calm     71% 0.00in /  0mm 0.0 W/m2
02:37 68.5 °F /  20.3 °C 59.2 °F /  15.1 °C 29.69in /  1005.3hPa Calm     72% 0.00in /  0mm 0.0 W/m2
02:43 68.4 °F /  20.2 °C 58.6 °F /  14.8 °C 29.69in /  1005.3hPa NW 0.9mph /  1.4km/h 2.0mph /  3.2km/h 71% 0.00in /  0mm 0.0 W/m2
02:50 68.2 °F /  20.1 °C 58.1 °F /  14.5 °C 29.68in /  1005hPa Calm   1.0mph /  1.6km/h 70% 0.00in /  0mm 0.0 W/m2
02:56 68.2 °F /  20.1 °C 58.5 °F /  14.7 °C 29.68in /  1005hPa Calm     71% 0.00in /  0mm 0.0 W/m2
03:02 67.8 °F /  19.9 °C 58.5 °F /  14.7 °C 29.68in /  1005hPa Calm     72% 0.00in /  0mm 0.0 W/m2
03:08 67.6 °F /  19.8 °C 58.3 °F /  14.6 °C 29.69in /  1005.3hPa Calm   1.0mph /  1.6km/h 72% 0.00in /  0mm 0.0 W/m2
03:14 67.5 °F /  19.7 °C 58.1 °F /  14.5 °C 29.69in /  1005.3hPa Calm     72% 0.00in /  0mm 0.0 W/m2
03:20 67.3 °F /  19.6 °C 57.6 °F /  14.2 °C 29.69in /  1005.3hPa Calm     71% 0.00in /  0mm 0.0 W/m2
03:26 67.1 °F /  19.5 °C 57.0 °F /  13.9 °C 29.69in /  1005.3hPa Calm     70% 0.00in /  0mm 0.0 W/m2
03:32 66.7 °F /  19.3 °C 56.3 °F /  13.5 °C 29.69in /  1005.3hPa Calm     69% 0.00in /  0mm 0.0 W/m2
03:39 66.6 °F /  19.2 °C 55.6 °F /  13.1 °C 29.69in /  1005.3hPa Calm     68% 0.00in /  0mm 0.0 W/m2
03:45 66.4 °F /  19.1 °C 55.6 °F /  13.1 °C 29.69in /  1005.3hPa Calm     68% 0.00in /  0mm 0.0 W/m2
03:51 66.4 °F /  19.1 °C 55.6 °F /  13.1 °C 29.68in /  1005hPa Calm     68% 0.00in /  0mm 0.0 W/m2
03:57 66.0 °F /  18.9 °C 55.2 °F /  12.9 °C 29.68in /  1005hPa Calm     68% 0.00in /  0mm 0.0 W/m2
04:03 65.8 °F /  18.8 °C 55.0 °F /  12.8 °C 29.69in /  1005.3hPa Calm     68% 0.00in /  0mm 0.0 W/m2
04:09 65.7 °F /  18.7 °C 55.2 °F /  12.9 °C 29.69in /  1005.3hPa Calm     69% 0.00in /  0mm 0.0 W/m2
04:15 65.5 °F /  18.6 °C 55.0 °F /  12.8 °C 29.69in /  1005.3hPa Calm     69% 0.00in /  0mm 0.0 W/m2
04:22 65.3 °F /  18.5 °C 54.9 °F /  12.7 °C 29.69in /  1005.3hPa Calm     69% 0.00in /  0mm 0.0 W/m2
04:28 65.1 °F /  18.4 °C 55.0 °F /  12.8 °C 29.69in /  1005.3hPa Calm     70% 0.00in /  0mm 0.0 W/m2
04:34 64.9 °F /  18.3 °C 54.9 °F /  12.7 °C 29.69in /  1005.3hPa Calm     70% 0.00in /  0mm 0.0 W/m2
04:40 64.8 °F /  18.2 °C 54.7 °F /  12.6 °C 29.69in /  1005.3hPa Calm     70% 0.00in /  0mm 0.0 W/m2
04:46 64.6 °F /  18.1 °C 55.0 °F /  12.8 °C 29.69in /  1005.3hPa Calm     71% 0.00in /  0mm 0.0 W/m2
04:52 64.4 °F /  18 °C 55.2 °F /  12.9 °C 29.69in /  1005.3hPa Calm     72% 0.00in /  0mm 0.0 W/m2
04:58 64.2 °F /  17.9 °C 55.4 °F /  13 °C 29.69in /  1005.3hPa Calm     73% 0.00in /  0mm 0.0 W/m2
05:04 64.0 °F /  17.8 °C 55.2 °F /  12.9 °C 29.69in /  1005.3hPa Calm     73% 0.00in /  0mm 0.0 W/m2
05:11 63.9 °F /  17.7 °C 55.4 °F /  13 °C 29.69in /  1005.3hPa Calm     74% 0.00in /  0mm 0.0 W/m2
05:17 63.7 °F /  17.6 °C 55.6 °F /  13.1 °C 29.69in /  1005.3hPa Calm     75% 0.00in /  0mm 0.0 W/m2
05:23 63.5 °F /  17.5 °C 55.4 °F /  13 °C 29.69in /  1005.3hPa Calm   1.0mph /  1.6km/h 75% 0.00in /  0mm 0.0 W/m2
05:29 63.1 °F /  17.3 °C 55.0 °F /  12.8 °C 29.69in /  1005.3hPa Calm   1.0mph /  1.6km/h 75% 0.00in /  0mm 0.0 W/m2
05:35 63.0 °F /  17.2 °C 54.9 °F /  12.7 °C 29.69in /  1005.3hPa Calm     75% 0.00in /  0mm 0.0 W/m2
05:41 62.8 °F /  17.1 °C 55.0 °F /  12.8 °C 29.69in /  1005.3hPa Calm   2.0mph /  3.2km/h 76% 0.00in /  0mm 0.0 W/m2
05:47 62.6 °F /  17 °C 54.9 °F /  12.7 °C 29.69in /  1005.3hPa Calm   1.0mph /  1.6km/h 76% 0.00in /  0mm 0.0 W/m2
05:54 62.4 °F /  16.9 °C 55.0 °F /  12.8 °C 29.70in /  1005.6hPa Calm     77% 0.00in /  0mm 0.0 W/m2
06:00 62.2 °F /  16.8 °C 54.9 °F /  12.7 °C 29.70in /  1005.6hPa Calm     77% 0.00in /  0mm 0.0 W/m2
06:06 62.1 °F /  16.7 °C 55.0 °F /  12.8 °C 29.70in /  1005.6hPa Calm   1.0mph /  1.6km/h 78% 0.00in /  0mm 0.0 W/m2
06:12 62.1 °F /  16.7 °C 55.0 °F /  12.8 °C 29.70in /  1005.6hPa Calm     78% 0.00in /  0mm 0.0 W/m2
06:18 61.9 °F /  16.6 °C 55.6 °F /  13.1 °C 29.70in /  1005.6hPa ESE 0.9mph /  1.4km/h 2.0mph /  3.2km/h 80% 0.00in /  0mm 0.0 W/m2
06:24 61.9 °F /  16.6 °C 55.9 °F /  13.3 °C 29.70in /  1005.6hPa Calm   1.0mph /  1.6km/h 81% 0.00in /  0mm 0.0 W/m2
06:30 61.9 °F /  16.6 °C 56.3 °F /  13.5 °C 29.70in /  1005.6hPa Calm   1.0mph /  1.6km/h 82% 0.00in /  0mm 0.0 W/m2
06:36 61.9 °F /  16.6 °C 55.9 °F /  13.3 °C 29.70in /  1005.6hPa Calm   1.0mph /  1.6km/h 81% 0.00in /  0mm 0.0 W/m2
06:43 61.9 °F /  16.6 °C 55.9 °F /  13.3 °C 29.70in /  1005.6hPa Calm     81% 0.00in /  0mm 0.0 W/m2
06:49 61.9 °F /  16.6 °C 55.9 °F /  13.3 °C 29.70in /  1005.6hPa Calm   1.0mph /  1.6km/h 81% 0.00in /  0mm 7.0 W/m2
06:55 61.9 °F /  16.6 °C 55.9 °F /  13.3 °C 29.70in /  1005.6hPa Calm     81% 0.00in /  0mm 11.0 W/m2
07:01 61.9 °F /  16.6 °C 55.9 °F /  13.3 °C 29.70in /  1005.6hPa Calm     81% 0.00in /  0mm 12.0 W/m2
07:07 61.9 °F /  16.6 °C 56.3 °F /  13.5 °C 29.71in /  1006hPa Calm     82% 0.00in /  0mm 14.0 W/m2
07:13 61.9 °F /  16.6 °C 56.7 °F /  13.7 °C 29.70in /  1005.6hPa Calm   1.0mph /  1.6km/h 83% 0.00in /  0mm 18.0 W/m2
07:19 61.9 °F /  16.6 °C 57.0 °F /  13.9 °C 29.71in /  1006hPa Calm   1.0mph /  1.6km/h 84% 0.00in /  0mm 19.0 W/m2
07:26 62.1 °F /  16.7 °C 57.2 °F /  14 °C 29.71in /  1006hPa Calm   1.0mph /  1.6km/h 84% 0.00in /  0mm 21.0 W/m2
07:32 62.2 °F /  16.8 °C 57.0 °F /  13.9 °C 29.71in /  1006hPa East 0.9mph /  1.4km/h 2.0mph /  3.2km/h 83% 0.00in /  0mm 23.0 W/m2
07:38 62.8 °F /  17.1 °C 57.6 °F /  14.2 °C 29.71in /  1006hPa Calm   1.0mph /  1.6km/h 83% 0.00in /  0mm 25.0 W/m2
07:44 63.0 °F /  17.2 °C 57.4 °F /  14.1 °C 29.71in /  1006hPa Calm     82% 0.00in /  0mm 26.0 W/m2
07:50 63.5 °F /  17.5 °C 57.6 °F /  14.2 °C 29.71in /  1006hPa Calm     81% 0.00in /  0mm 28.0 W/m2
07:56 64.0 °F /  17.8 °C 58.1 °F /  14.5 °C 29.71in /  1006hPa Calm   1.0mph /  1.6km/h 81% 0.00in /  0mm 28.0 W/m2
08:02 64.8 °F /  18.2 °C 58.5 °F /  14.7 °C 29.71in /  1006hPa Calm     80% 0.00in /  0mm 30.0 W/m2
08:08 65.3 °F /  18.5 °C 58.6 °F /  14.8 °C 29.71in /  1006hPa Calm   1.0mph /  1.6km/h 79% 0.00in /  0mm 35.0 W/m2
08:14 66.0 °F /  18.9 °C 59.0 °F /  15 °C 29.71in /  1006hPa Calm   1.0mph /  1.6km/h 78% 0.00in /  0mm 46.0 W/m2
08:21 66.6 °F /  19.2 °C 59.5 °F /  15.3 °C 29.71in /  1006hPa Calm     78% 0.00in /  0mm 67.0 W/m2
08:27 67.3 °F /  19.6 °C 59.9 °F /  15.5 °C 29.71in /  1006hPa Calm     77% 0.00in /  0mm 394.0 W/m2
08:33 67.8 °F /  19.9 °C 59.9 °F /  15.5 °C 29.71in /  1006hPa Calm   1.0mph /  1.6km/h 76% 0.00in /  0mm 425.0 W/m2
08:39 68.7 °F /  20.4 °C 60.1 °F /  15.6 °C 29.71in /  1006hPa Calm   1.0mph /  1.6km/h 74% 0.00in /  0mm 452.0 W/m2
08:45 69.4 °F /  20.8 °C 60.1 °F /  15.6 °C 29.71in /  1006hPa North 0.9mph /  1.4km/h 2.0mph /  3.2km/h 72% 0.00in /  0mm 482.0 W/m2
08:51 70.5 °F /  21.4 °C 60.6 °F /  15.9 °C 29.71in /  1006hPa North 0.9mph /  1.4km/h 3.0mph /  4.8km/h 71% 0.00in /  0mm 508.0 W/m2
08:58 72.0 °F /  22.2 °C 60.8 °F /  16 °C 29.71in /  1006hPa Calm   2.0mph /  3.2km/h 68% 0.00in /  0mm 531.0 W/m2
09:04 73.8 °F /  23.2 °C 61.3 °F /  16.3 °C 29.71in /  1006hPa NNW 0.9mph /  1.4km/h 1.0mph /  1.6km/h 65% 0.00in /  0mm 554.0 W/m2
09:10 74.7 °F /  23.7 °C 60.3 °F /  15.7 °C 29.72in /  1006.3hPa Calm   3.0mph /  4.8km/h 61% 0.00in /  0mm 577.0 W/m2
09:16 75.7 °F /  24.3 °C 60.4 °F /  15.8 °C 29.72in /  1006.3hPa Calm   1.0mph /  1.6km/h 59% 0.00in /  0mm 605.0 W/m2
09:22 76.6 °F /  24.8 °C 60.3 °F /  15.7 °C 29.72in /  1006.3hPa Calm   1.0mph /  1.6km/h 57% 0.00in /  0mm 626.0 W/m2
09:28 76.3 °F /  24.6 °C 59.9 °F /  15.5 °C 29.72in /  1006.3hPa NNW 0.9mph /  1.4km/h 2.0mph /  3.2km/h 57% 0.00in /  0mm 670.0 W/m2
09:34 76.3 °F /  24.6 °C 60.4 °F /  15.8 °C 29.72in /  1006.3hPa SW 0.9mph /  1.4km/h 5.0mph /  8km/h 58% 0.00in /  0mm 693.0 W/m2
09:40 76.5 °F /  24.7 °C 60.6 °F /  15.9 °C 29.71in /  1006hPa WNW 2.0mph /  3.2km/h 3.0mph /  4.8km/h 58% 0.00in /  0mm 777.0 W/m2
09:47 76.6 °F /  24.8 °C 61.2 °F /  16.2 °C 29.71in /  1006hPa Calm   2.0mph /  3.2km/h 59% 0.00in /  0mm 151.0 W/m2
09:53 76.6 °F /  24.8 °C 60.8 °F /  16 °C 29.72in /  1006.3hPa Calm   2.0mph /  3.2km/h 58% 0.00in /  0mm 248.0 W/m2
09:59 76.3 °F /  24.6 °C 60.4 °F /  15.8 °C 29.72in /  1006.3hPa WNW 0.9mph /  1.4km/h 2.0mph /  3.2km/h 58% 0.00in /  0mm 102.0 W/m2
10:05 75.7 °F /  24.3 °C 60.4 °F /  15.8 °C 29.72in /  1006.3hPa Calm   3.0mph /  4.8km/h 59% 0.00in /  0mm 211.0 W/m2
10:11 75.6 °F /  24.2 °C 60.3 °F /  15.7 °C 29.71in /  1006hPa Calm   1.0mph /  1.6km/h 59% 0.00in /  0mm 165.0 W/m2
10:17 75.6 °F /  24.2 °C 60.3 °F /  15.7 °C 29.71in /  1006hPa Calm   1.0mph /  1.6km/h 59% 0.00in /  0mm 220.0 W/m2
10:23 75.6 °F /  24.2 °C 59.2 °F /  15.1 °C 29.72in /  1006.3hPa North 0.9mph /  1.4km/h 2.0mph /  3.2km/h 57% 0.00in /  0mm 195.0 W/m2
10:35 76.6 °F /  24.8 °C 60.3 °F /  15.7 °C 29.72in /  1006.3hPa Calm   2.0mph /  3.2km/h 57% 0.00in /  0mm 1021.0 W/m2
10:41 77.5 °F /  25.3 °C 59.5 °F /  15.3 °C 29.71in /  1006hPa North 2.0mph /  3.2km/h 3.0mph /  4.8km/h 54% 0.00in /  0mm 1081.0 W/m2
10:48 79.0 °F /  26.1 °C 57.6 °F /  14.2 °C 29.71in /  1006hPa East 0.9mph /  1.4km/h 3.0mph /  4.8km/h 48% 0.00in /  0mm 281.0 W/m2
10:53 80.2 °F /  26.8 °C 55.8 °F /  13.2 °C 29.71in /  1006hPa East 4.9mph /  7.9km/h 9.0mph /  14.5km/h 43% 0.00in /  0mm 1088.0 W/m2
11:00 81.1 °F /  27.3 °C 53.8 °F /  12.1 °C 29.71in /  1006hPa SE 6.9mph /  11.1km/h 8.0mph /  12.9km/h 39% 0.00in /  0mm 176.0 W/m2
11:06 81.7 °F /  27.6 °C 52.9 °F /  11.6 °C 29.70in /  1005.6hPa South 2.9mph /  4.7km/h 5.0mph /  8km/h 37% 0.00in /  0mm 1114.0 W/m2
11:12 82.9 °F /  28.3 °C 50.9 °F /  10.5 °C 29.70in /  1005.6hPa NE 0.9mph /  1.4km/h 7.0mph /  11.3km/h 33% 0.00in /  0mm 1071.0 W/m2
11:18 84.2 °F /  29 °C 52.0 °F /  11.1 °C 29.70in /  1005.6hPa East 0.9mph /  1.4km/h 11.0mph /  17.7km/h 33% 0.00in /  0mm 1097.0 W/m2
11:24 84.9 °F /  29.4 °C 50.9 °F /  10.5 °C 29.70in /  1005.6hPa NE 2.9mph /  4.7km/h 7.0mph /  11.3km/h 31% 0.00in /  0mm 1134.0 W/m2
11:30 85.3 °F /  29.6 °C 52.9 °F /  11.6 °C 29.70in /  1005.6hPa South 4.9mph /  7.9km/h 9.0mph /  14.5km/h 33% 0.00in /  0mm 1132.0 W/m2
11:36 85.1 °F /  29.5 °C 52.7 °F /  11.5 °C 29.70in /  1005.6hPa South 2.9mph /  4.7km/h 8.0mph /  12.9km/h 33% 0.00in /  0mm 1118.0 W/m2
11:42 85.1 °F /  29.5 °C 52.0 °F /  11.1 °C 29.70in /  1005.6hPa ENE 4.9mph /  7.9km/h 9.0mph /  14.5km/h 32% 0.00in /  0mm 1172.0 W/m2
11:48 84.2 °F /  29 °C 52.7 °F /  11.5 °C 29.70in /  1005.6hPa SSE 8.9mph /  14.3km/h 11.0mph /  17.7km/h 34% 0.00in /  0mm 176.0 W/m2
11:54 83.7 °F /  28.7 °C 52.3 °F /  11.3 °C 29.70in /  1005.6hPa South 0.9mph /  1.4km/h 7.0mph /  11.3km/h 34% 0.00in /  0mm 1107.0 W/m2
12:00 84.2 °F /  29 °C 51.1 °F /  10.6 °C 29.69in /  1005.3hPa SE 2.0mph /  3.2km/h 4.0mph /  6.4km/h 32% 0.00in /  0mm 1181.0 W/m2
12:06 84.9 °F /  29.4 °C 50.9 °F /  10.5 °C 29.69in /  1005.3hPa ESE 4.0mph /  6.4km/h 10.0mph /  16.1km/h 31% 0.00in /  0mm 1194.0 W/m2
12:12 84.7 °F /  29.3 °C 50.7 °F /  10.4 °C 29.69in /  1005.3hPa NE 4.0mph /  6.4km/h 8.0mph /  12.9km/h 31% 0.00in /  0mm 229.0 W/m2
12:18 84.7 °F /  29.3 °C 50.7 °F /  10.4 °C 29.69in /  1005.3hPa SE 2.0mph /  3.2km/h 9.0mph /  14.5km/h 31% 0.00in /  0mm 1201.0 W/m2
12:24 85.3 °F /  29.6 °C 52.9 °F /  11.6 °C 29.69in /  1005.3hPa SE 4.0mph /  6.4km/h 10.0mph /  16.1km/h 33% 0.00in /  0mm 1178.0 W/m2
12:30 85.6 °F /  29.8 °C 50.7 °F /  10.4 °C 29.68in /  1005hPa ESE 2.0mph /  3.2km/h 7.0mph /  11.3km/h 30% 0.00in /  0mm 1179.0 W/m2
12:36 85.8 °F /  29.9 °C 51.6 °F /  10.9 °C 29.68in /  1005hPa ESE 4.0mph /  6.4km/h 10.0mph /  16.1km/h 31% 0.00in /  0mm 276.0 W/m2
12:42 86.0 °F /  30 °C 52.7 °F /  11.5 °C 29.68in /  1005hPa SE 4.0mph /  6.4km/h 7.0mph /  11.3km/h 32% 0.00in /  0mm 1243.0 W/m2
12:48 86.7 °F /  30.4 °C 52.5 °F /  11.4 °C 29.68in /  1005hPa East 6.0mph /  9.7km/h 11.0mph /  17.7km/h 31% 0.00in /  0mm 1324.0 W/m2
12:54 87.1 °F /  30.6 °C 52.7 °F /  11.5 °C 29.67in /  1004.6hPa ESE 6.9mph /  11.1km/h 14.0mph /  22.5km/h 31% 0.00in /  0mm 1232.0 W/m2
13:00 87.3 °F /  30.7 °C 52.0 °F /  11.1 °C 29.67in /  1004.6hPa ESE 8.9mph /  14.3km/h 9.0mph /  14.5km/h 30% 0.00in /  0mm 1183.0 W/m2
13:06 87.4 °F /  30.8 °C 52.2 °F /  11.2 °C 29.67in /  1004.6hPa NE 2.9mph /  4.7km/h 10.0mph /  16.1km/h 30% 0.00in /  0mm 1218.0 W/m2
13:12 87.8 °F /  31 °C 51.6 °F /  10.9 °C 29.67in /  1004.6hPa South 2.0mph /  3.2km/h 9.0mph /  14.5km/h 29% 0.00in /  0mm 1276.0 W/m2
13:18 87.6 °F /  30.9 °C 51.4 °F /  10.8 °C 29.67in /  1004.6hPa SE 6.0mph /  9.7km/h 11.0mph /  17.7km/h 29% 0.00in /  0mm 292.0 W/m2
13:24 86.5 °F /  30.3 °C 51.4 °F /  10.8 °C 29.66in /  1004.3hPa SSE 6.9mph /  11.1km/h 11.0mph /  17.7km/h 30% 0.00in /  0mm 415.0 W/m2
13:30 86.4 °F /  30.2 °C 52.2 °F /  11.2 °C 29.66in /  1004.3hPa SSW 4.0mph /  6.4km/h 7.0mph /  11.3km/h 31% 0.00in /  0mm 1188.0 W/m2
13:36 87.3 °F /  30.7 °C 52.0 °F /  11.1 °C 29.66in /  1004.3hPa SSE 6.0mph /  9.7km/h 11.0mph /  17.7km/h 30% 0.00in /  0mm 1215.0 W/m2
13:42 88.2 °F /  31.2 °C 50.9 °F /  10.5 °C 29.65in /  1003.9hPa SW 0.9mph /  1.4km/h 7.0mph /  11.3km/h 28% 0.00in /  0mm 1204.0 W/m2
13:48 88.2 °F /  31.2 °C 52.0 °F /  11.1 °C 29.65in /  1003.9hPa ESE 0.9mph /  1.4km/h 5.0mph /  8km/h 29% 0.00in /  0mm 1137.0 W/m2
13:54 88.5 °F /  31.4 °C 51.3 °F /  10.7 °C 29.64in /  1003.6hPa Calm   2.0mph /  3.2km/h 28% 0.00in /  0mm 1132.0 W/m2
14:00 89.4 °F /  31.9 °C 51.1 °F /  10.6 °C 29.64in /  1003.6hPa SE 8.1mph /  13km/h 8.1mph /  13km/h 27% 0.00in /  0mm 1162.0 W/m2
14:06 89.1 °F /  31.7 °C 50.7 °F /  10.4 °C 29.64in /  1003.6hPa ESE 2.0mph /  3.2km/h 6.0mph /  9.7km/h 27% 0.00in /  0mm 192.0 W/m2
14:12 87.8 °F /  31 °C 48.6 °F /  9.2 °C 29.64in /  1003.6hPa SW 4.9mph /  7.9km/h 7.0mph /  11.3km/h 26% 0.00in /  0mm 246.0 W/m2
14:19 86.7 °F /  30.4 °C 48.7 °F /  9.3 °C 29.64in /  1003.6hPa SW 2.9mph /  4.7km/h 12.0mph /  19.3km/h 27% 0.00in /  0mm 1169.0 W/m2
14:26 87.1 °F /  30.6 °C 49.1 °F /  9.5 °C 29.63in /  1003.3hPa South 0.9mph /  1.4km/h 9.0mph /  14.5km/h 27% 0.00in /  0mm 1134.0 W/m2
14:32 88.0 °F /  31.1 °C 47.8 °F /  8.8 °C 29.63in /  1003.3hPa Calm   3.0mph /  4.8km/h 25% 0.00in /  0mm 1141.0 W/m2
14:38 88.3 °F /  31.3 °C 45.9 °F /  7.7 °C 29.63in /  1003.3hPa SSE 4.0mph /  6.4km/h 7.0mph /  11.3km/h 23% 0.00in /  0mm 1129.0 W/m2
14:44 89.1 °F /  31.7 °C 47.7 °F /  8.7 °C 29.63in /  1003.3hPa South 2.9mph /  4.7km/h 7.0mph /  11.3km/h 24% 0.00in /  0mm 1041.0 W/m2
14:50 89.4 °F /  31.9 °C 47.8 °F /  8.8 °C 29.62in /  1002.9hPa East 10.0mph /  16.1km/h 10.0mph /  16.1km/h 24% 0.00in /  0mm 1028.0 W/m2
14:56 90.3 °F /  32.4 °C 47.5 °F /  8.6 °C 29.62in /  1002.9hPa SE 4.0mph /  6.4km/h 11.0mph /  17.7km/h 23% 0.00in /  0mm 1035.0 W/m2
15:02 90.3 °F /  32.4 °C 47.5 °F /  8.6 °C 29.62in /  1002.9hPa SSE 11.0mph /  17.7km/h 12.0mph /  19.3km/h 23% 0.00in /  0mm 998.0 W/m2
15:08 90.5 °F /  32.5 °C 46.4 °F /  8 °C 29.61in /  1002.6hPa South 4.0mph /  6.4km/h 5.0mph /  8km/h 22% 0.00in /  0mm 954.0 W/m2
15:14 90.7 °F /  32.6 °C 47.8 °F /  8.8 °C 29.62in /  1002.9hPa SE 0.9mph /  1.4km/h 5.0mph /  8km/h 23% 0.00in /  0mm 928.0 W/m2
15:20 90.7 °F /  32.6 °C 47.8 °F /  8.8 °C 29.61in /  1002.6hPa SE 10.1mph /  16.3km/h 11.0mph /  17.7km/h 23% 0.00in /  0mm 919.0 W/m2
15:26 90.7 °F /  32.6 °C 47.8 °F /  8.8 °C 29.61in /  1002.6hPa SE 2.0mph /  3.2km/h 6.0mph /  9.7km/h 23% 0.00in /  0mm 889.0 W/m2
15:32 90.7 °F /  32.6 °C 47.8 °F /  8.8 °C 29.60in /  1002.3hPa SW 0.9mph /  1.4km/h 6.0mph /  9.7km/h 23% 0.00in /  0mm 867.0 W/m2
15:38 90.1 °F /  32.3 °C 46.2 °F /  7.9 °C 29.60in /  1002.3hPa SE 6.0mph /  9.7km/h 11.0mph /  17.7km/h 22% 0.00in /  0mm 868.0 W/m2
15:44 90.0 °F /  32.2 °C 46.0 °F /  7.8 °C 29.60in /  1002.3hPa SSW 8.9mph /  14.3km/h 10.0mph /  16.1km/h 22% 0.00in /  0mm 838.0 W/m2
15:50 90.3 °F /  32.4 °C 47.5 °F /  8.6 °C 29.60in /  1002.3hPa SE 4.9mph /  7.9km/h 5.0mph /  8km/h 23% 0.00in /  0mm 828.0 W/m2
15:56 90.9 °F /  32.7 °C 46.8 °F /  8.2 °C 29.60in /  1002.3hPa WSW 2.9mph /  4.7km/h 6.0mph /  9.7km/h 22% 0.00in /  0mm 826.0 W/m2
16:02 90.1 °F /  32.3 °C 46.2 °F /  7.9 °C 29.59in /  1001.9hPa East 2.0mph /  3.2km/h 4.0mph /  6.4km/h 22% 0.00in /  0mm 803.0 W/m2
16:08 90.1 °F /  32.3 °C 47.3 °F /  8.5 °C 29.59in /  1001.9hPa SW 4.0mph /  6.4km/h 9.0mph /  14.5km/h 23% 0.00in /  0mm 788.0 W/m2
16:14 90.3 °F /  32.4 °C 46.4 °F /  8 °C 29.59in /  1001.9hPa NNE 8.1mph /  13km/h 8.1mph /  13km/h 22% 0.00in /  0mm 772.0 W/m2
16:20 90.9 °F /  32.7 °C 46.8 °F /  8.2 °C 29.59in /  1001.9hPa SSE 4.9mph /  7.9km/h 13.0mph /  20.9km/h 22% 0.00in /  0mm 775.0 W/m2
16:26 90.9 °F /  32.7 °C 46.8 °F /  8.2 °C 29.59in /  1001.9hPa SSE 4.9mph /  7.9km/h 9.0mph /  14.5km/h 22% 0.00in /  0mm 768.0 W/m2
16:32 90.9 °F /  32.7 °C 48.0 °F /  8.9 °C 29.59in /  1001.9hPa SSW 4.9mph /  7.9km/h 11.0mph /  17.7km/h 23% 0.00in /  0mm 118.0 W/m2
16:38 90.3 °F /  32.4 °C 48.6 °F /  9.2 °C 29.58in /  1001.6hPa Calm   8.0mph /  12.9km/h 24% 0.00in /  0mm 689.0 W/m2
16:44 90.1 °F /  32.3 °C 48.6 °F /  9.2 °C 29.58in /  1001.6hPa SE 2.9mph /  4.7km/h 6.0mph /  9.7km/h 24% 0.00in /  0mm 654.0 W/m2
16:50 90.0 °F /  32.2 °C 49.5 °F /  9.7 °C 29.58in /  1001.6hPa South 2.9mph /  4.7km/h 11.0mph /  17.7km/h 25% 0.00in /  0mm 621.0 W/m2
16:56 90.1 °F /  32.3 °C 49.6 °F /  9.8 °C 29.57in /  1001.2hPa South 6.0mph /  9.7km/h 8.0mph /  12.9km/h 25% 0.00in /  0mm 592.0 W/m2
17:02 90.1 °F /  32.3 °C 49.6 °F /  9.8 °C 29.57in /  1001.2hPa SSE 2.0mph /  3.2km/h 4.0mph /  6.4km/h 25% 0.00in /  0mm 570.0 W/m2
17:09 90.3 °F /  32.4 °C 50.7 °F /  10.4 °C 29.57in /  1001.2hPa SSE 12.1mph /  19.5km/h 12.1mph /  19.5km/h 26% 0.00in /  0mm 264.0 W/m2
17:14 90.0 °F /  32.2 °C 50.5 °F /  10.3 °C 29.57in /  1001.2hPa SSE 0.9mph /  1.4km/h 4.0mph /  6.4km/h 26% 0.00in /  0mm 529.0 W/m2
17:20 90.0 °F /  32.2 °C 50.5 °F /  10.3 °C 29.57in /  1001.2hPa SE 4.0mph /  6.4km/h 7.0mph /  11.3km/h 26% 0.00in /  0mm 503.0 W/m2
17:26 90.1 °F /  32.3 °C 50.5 °F /  10.3 °C 29.57in /  1001.2hPa SE 2.9mph /  4.7km/h 6.0mph /  9.7km/h 26% 0.00in /  0mm 478.0 W/m2
17:32 90.3 °F /  32.4 °C 50.7 °F /  10.4 °C 29.57in /  1001.2hPa SSE 2.0mph /  3.2km/h 7.0mph /  11.3km/h 26% 0.00in /  0mm 476.0 W/m2
17:38 90.0 °F /  32.2 °C 51.4 °F /  10.8 °C 29.57in /  1001.2hPa SE 6.0mph /  9.7km/h 8.0mph /  12.9km/h 27% 0.00in /  0mm 77.0 W/m2
17:44 89.1 °F /  31.7 °C 51.8 °F /  11 °C 29.57in /  1001.2hPa SSE 2.9mph /  4.7km/h 6.0mph /  9.7km/h 28% 0.00in /  0mm 76.0 W/m2
17:50 88.2 °F /  31.2 °C 50.9 °F /  10.5 °C 29.57in /  1001.2hPa South 2.9mph /  4.7km/h 9.0mph /  14.5km/h 28% 0.00in /  0mm 100.0 W/m2
17:56 87.8 °F /  31 °C 49.6 °F /  9.8 °C 29.57in /  1001.2hPa SE 4.0mph /  6.4km/h 10.0mph /  16.1km/h 27% 0.00in /  0mm 299.0 W/m2
18:02 88.0 °F /  31.1 °C 50.7 °F /  10.4 °C 29.57in /  1001.2hPa ESE 0.9mph /  1.4km/h 8.0mph /  12.9km/h 28% 0.00in /  0mm 278.0 W/m2
18:08 88.2 °F /  31.2 °C 50.0 °F /  10 °C 29.57in /  1001.2hPa SSE 2.9mph /  4.7km/h 7.0mph /  11.3km/h 27% 0.00in /  0mm 265.0 W/m2
18:14 88.5 °F /  31.4 °C 52.2 °F /  11.2 °C 29.57in /  1001.2hPa East 2.0mph /  3.2km/h 6.0mph /  9.7km/h 29% 0.00in /  0mm 253.0 W/m2
18:20 88.9 °F /  31.6 °C 50.5 °F /  10.3 °C 29.57in /  1001.2hPa SE 6.0mph /  9.7km/h 12.0mph /  19.3km/h 27% 0.00in /  0mm 253.0 W/m2
18:26 88.9 °F /  31.6 °C 50.5 °F /  10.3 °C 29.58in /  1001.6hPa SE 0.9mph /  1.4km/h 5.0mph /  8km/h 27% 0.00in /  0mm 202.0 W/m2
18:32 88.7 °F /  31.5 °C 50.4 °F /  10.2 °C 29.58in /  1001.6hPa SE 6.9mph /  11.1km/h 13.0mph /  20.9km/h 27% 0.00in /  0mm 183.0 W/m2
18:38 88.5 °F /  31.4 °C 51.3 °F /  10.7 °C 29.58in /  1001.6hPa ESE 4.0mph /  6.4km/h 7.0mph /  11.3km/h 28% 0.00in /  0mm 148.0 W/m2
18:44 88.2 °F /  31.2 °C 50.0 °F /  10 °C 29.59in /  1001.9hPa ESE 2.9mph /  4.7km/h 10.0mph /  16.1km/h 27% 0.00in /  0mm 144.0 W/m2
18:50 88.0 °F /  31.1 °C 50.7 °F /  10.4 °C 29.59in /  1001.9hPa ESE 4.0mph /  6.4km/h 7.0mph /  11.3km/h 28% 0.00in /  0mm 130.0 W/m2
18:56 88.0 °F /  31.1 °C 50.7 °F /  10.4 °C 29.59in /  1001.9hPa East 4.0mph /  6.4km/h 7.0mph /  11.3km/h 28% 0.00in /  0mm 109.0 W/m2
19:02 87.6 °F /  30.9 °C 50.5 °F /  10.3 °C 29.59in /  1001.9hPa SE 2.0mph /  3.2km/h 7.0mph /  11.3km/h 28% 0.00in /  0mm 74.0 W/m2
19:08 87.1 °F /  30.6 °C 50.0 °F /  10 °C 29.59in /  1001.9hPa East 2.0mph /  3.2km/h 7.0mph /  11.3km/h 28% 0.00in /  0mm 33.0 W/m2
19:14 86.4 °F /  30.2 °C 49.5 °F /  9.7 °C 29.60in /  1002.3hPa SSE 8.9mph /  14.3km/h 10.0mph /  16.1km/h 28% 0.00in /  0mm 28.0 W/m2
19:20 85.5 °F /  29.7 °C 49.6 °F /  9.8 °C 29.60in /  1002.3hPa SE 6.0mph /  9.7km/h 7.0mph /  11.3km/h 29% 0.00in /  0mm 21.0 W/m2
19:26 84.9 °F /  29.4 °C 50.0 °F /  10 °C 29.60in /  1002.3hPa ESE 0.9mph /  1.4km/h 5.0mph /  8km/h 30% 0.00in /  0mm 16.0 W/m2
19:32 84.6 °F /  29.2 °C 50.5 °F /  10.3 °C 29.61in /  1002.6hPa ESE 2.0mph /  3.2km/h 6.0mph /  9.7km/h 31% 0.00in /  0mm 9.0 W/m2
19:38 84.0 °F /  28.9 °C 50.9 °F /  10.5 °C 29.61in /  1002.6hPa ESE 2.0mph /  3.2km/h 5.0mph /  8km/h 32% 0.00in /  0mm 7.0 W/m2
19:44 83.8 °F /  28.8 °C 50.9 °F /  10.5 °C 29.61in /  1002.6hPa SE 4.0mph /  6.4km/h 9.0mph /  14.5km/h 32% 0.00in /  0mm 5.0 W/m2
19:50 83.5 °F /  28.6 °C 51.4 °F /  10.8 °C 29.62in /  1002.9hPa SE 6.0mph /  9.7km/h 7.0mph /  11.3km/h 33% 0.00in /  0mm 0.0 W/m2
19:57 83.1 °F /  28.4 °C 51.8 °F /  11 °C 29.62in /  1002.9hPa ESE 4.0mph /  6.4km/h 8.0mph /  12.9km/h 34% 0.00in /  0mm 0.0 W/m2
20:03 82.9 °F /  28.3 °C 52.5 °F /  11.4 °C 29.62in /  1002.9hPa Calm   4.0mph /  6.4km/h 35% 0.00in /  0mm 0.0 W/m2
20:09 82.8 °F /  28.2 °C 53.1 °F /  11.7 °C 29.63in /  1003.3hPa East 4.9mph /  7.9km/h 5.0mph /  8km/h 36% 0.00in /  0mm 0.0 W/m2
20:15 82.4 °F /  28 °C 52.7 °F /  11.5 °C 29.63in /  1003.3hPa NE 0.9mph /  1.4km/h 4.0mph /  6.4km/h 36% 0.00in /  0mm 0.0 W/m2
20:21 82.2 °F /  27.9 °C 52.5 °F /  11.4 °C 29.63in /  1003.3hPa Calm   7.0mph /  11.3km/h 36% 0.00in /  0mm 0.0 W/m2
20:27 81.9 °F /  27.7 °C 52.3 °F /  11.3 °C 29.64in /  1003.6hPa East 0.9mph /  1.4km/h 2.0mph /  3.2km/h 36% 0.00in /  0mm 0.0 W/m2
20:34 81.9 °F /  27.7 °C 52.3 °F /  11.3 °C 29.64in /  1003.6hPa Calm   3.0mph /  4.8km/h 36% 0.00in /  0mm 0.0 W/m2
20:40 81.7 °F /  27.6 °C 52.9 °F /  11.6 °C 29.65in /  1003.9hPa Calm   3.0mph /  4.8km/h 37% 0.00in /  0mm 0.0 W/m2
20:46 81.3 °F /  27.4 °C 52.5 °F /  11.4 °C 29.65in /  1003.9hPa NNE 8.1mph /  13km/h 8.1mph /  13km/h 37% 0.00in /  0mm 0.0 W/m2
20:52 80.2 °F /  26.8 °C 59.4 °F /  15.2 °C 29.66in /  1004.3hPa WNW 4.0mph /  6.4km/h 12.0mph /  19.3km/h 49% 0.00in /  0mm 0.0 W/m2
20:58 79.0 °F /  26.1 °C 61.0 °F /  16.1 °C 29.66in /  1004.3hPa North 4.9mph /  7.9km/h 10.0mph /  16.1km/h 54% 0.00in /  0mm 0.0 W/m2
21:04 77.5 °F /  25.3 °C 60.6 °F /  15.9 °C 29.66in /  1004.3hPa NE 4.0mph /  6.4km/h 12.0mph /  19.3km/h 56% 0.00in /  0mm 0.0 W/m2
21:10 76.6 °F /  24.8 °C 60.8 °F /  16 °C 29.66in /  1004.3hPa ENE 4.9mph /  7.9km/h 8.0mph /  12.9km/h 58% 0.00in /  0mm 0.0 W/m2
21:16 75.9 °F /  24.4 °C 60.6 °F /  15.9 °C 29.66in /  1004.3hPa East 2.0mph /  3.2km/h 8.0mph /  12.9km/h 59% 0.00in /  0mm 0.0 W/m2
21:22 75.7 °F /  24.3 °C 60.8 °F /  16 °C 29.66in /  1004.3hPa North 0.9mph /  1.4km/h 7.0mph /  11.3km/h 60% 0.00in /  0mm 0.0 W/m2
21:28 75.4 °F /  24.1 °C 60.4 °F /  15.8 °C 29.67in /  1004.6hPa North 4.0mph /  6.4km/h 9.0mph /  14.5km/h 60% 0.00in /  0mm 0.0 W/m2
21:34 75.2 °F /  24 °C 60.4 °F /  15.8 °C 29.67in /  1004.6hPa NNW 4.0mph /  6.4km/h 7.0mph /  11.3km/h 60% 0.00in /  0mm 0.0 W/m2
21:40 74.8 °F /  23.8 °C 60.1 °F /  15.6 °C 29.67in /  1004.6hPa NNE 0.9mph /  1.4km/h 9.0mph /  14.5km/h 60% 0.00in /  0mm 0.0 W/m2
21:46 74.7 °F /  23.7 °C 59.9 °F /  15.5 °C 29.67in /  1004.6hPa NE 4.0mph /  6.4km/h 8.0mph /  12.9km/h 60% 0.00in /  0mm 0.0 W/m2
21:52 74.5 °F /  23.6 °C 60.1 °F /  15.6 °C 29.67in /  1004.6hPa North 6.9mph /  11.1km/h 7.0mph /  11.3km/h 61% 0.00in /  0mm 0.0 W/m2
21:58 74.1 °F /  23.4 °C 60.3 °F /  15.7 °C 29.67in /  1004.6hPa NE 4.0mph /  6.4km/h 7.0mph /  11.3km/h 62% 0.00in /  0mm 0.0 W/m2
22:04 73.9 °F /  23.3 °C 60.6 °F /  15.9 °C 29.67in /  1004.6hPa ENE 0.9mph /  1.4km/h 6.0mph /  9.7km/h 63% 0.00in /  0mm 0.0 W/m2
22:10 73.8 °F /  23.2 °C 60.4 °F /  15.8 °C 29.68in /  1005hPa NE 4.9mph /  7.9km/h 6.0mph /  9.7km/h 63% 0.00in /  0mm 0.0 W/m2
22:16 73.6 °F /  23.1 °C 60.3 °F /  15.7 °C 29.68in /  1005hPa NNE 2.0mph /  3.2km/h 5.0mph /  8km/h 63% 0.00in /  0mm 0.0 W/m2
22:22 73.6 °F /  23.1 °C 60.3 °F /  15.7 °C 29.68in /  1005hPa North 2.0mph /  3.2km/h 7.0mph /  11.3km/h 63% 0.00in /  0mm 0.0 W/m2
22:28 73.2 °F /  22.9 °C 60.3 °F /  15.7 °C 29.68in /  1005hPa ENE 2.0mph /  3.2km/h 5.0mph /  8km/h 64% 0.00in /  0mm 0.0 W/m2
22:35 73.2 °F /  22.9 °C 60.3 °F /  15.7 °C 29.68in /  1005hPa Calm   4.0mph /  6.4km/h 64% 0.00in /  0mm 0.0 W/m2
22:41 73.2 °F /  22.9 °C 60.8 °F /  16 °C 29.68in /  1005hPa Calm   1.0mph /  1.6km/h 65% 0.00in /  0mm 0.0 W/m2
22:47 73.0 °F /  22.8 °C 60.6 °F /  15.9 °C 29.69in /  1005.3hPa Calm   2.0mph /  3.2km/h 65% 0.00in /  0mm 0.0 W/m2
22:53 73.0 °F /  22.8 °C 61.0 °F /  16.1 °C 29.69in /  1005.3hPa Calm   5.0mph /  8km/h 66% 0.00in /  0mm 0.0 W/m2
22:59 72.9 °F /  22.7 °C 60.8 °F /  16 °C 29.69in /  1005.3hPa Calm   1.0mph /  1.6km/h 66% 0.00in /  0mm 0.0 W/m2
23:05 72.7 °F /  22.6 °C 61.2 °F /  16.2 °C 29.69in /  1005.3hPa Calm   3.0mph /  4.8km/h 67% 0.00in /  0mm 0.0 W/m2
23:11 72.7 °F /  22.6 °C 61.2 °F /  16.2 °C 29.69in /  1005.3hPa Calm   2.0mph /  3.2km/h 67% 0.00in /  0mm 0.0 W/m2
23:17 72.5 °F /  22.5 °C 61.0 °F /  16.1 °C 29.69in /  1005.3hPa Calm   1.0mph /  1.6km/h 67% 0.00in /  0mm 0.0 W/m2
23:23 72.3 °F /  22.4 °C 60.8 °F /  16 °C 29.69in /  1005.3hPa Calm   2.0mph /  3.2km/h 67% 0.00in /  0mm 0.0 W/m2
23:30 72.3 °F /  22.4 °C 60.8 °F /  16 °C 29.69in /  1005.3hPa Calm     67% 0.00in /  0mm 0.0 W/m2
23:36 72.1 °F /  22.3 °C 61.0 °F /  16.1 °C 29.69in /  1005.3hPa Calm   1.0mph /  1.6km/h 68% 0.00in /  0mm 0.0 W/m2
23:42 72.0 °F /  22.2 °C 60.8 °F /  16 °C 29.69in /  1005.3hPa Calm   2.0mph /  3.2km/h 68% 0.00in /  0mm 0.0 W/m2
23:48 72.0 °F /  22.2 °C 60.8 °F /  16 °C 29.69in /  1005.3hPa Calm   1.0mph /  1.6km/h 68% 0.00in /  0mm 0.0 W/m2
23:54 71.8 °F /  22.1 °C 61.0 °F /  16.1 °C 29.69in /  1005.3hPa Calm   1.0mph /  1.6km/h 69% 0.00in /  0mm 0.0 W/m2
Olympia, Windhoek, Namibia
Compliments of Weather Underground - 3 mb